createdAt,value
2023-03-17T00:02:13.234Z,4.25
2023-03-17T00:04:40.750Z,4.07
2023-03-17T00:07:08.380Z,4.45
2023-03-17T00:09:35.666Z,4.18
2023-03-17T00:12:06.102Z,4.95
2023-03-17T00:14:33.386Z,4.70
2023-03-17T00:17:05.189Z,4.80
2023-03-17T00:19:35.139Z,4.32
2023-03-17T00:22:06.025Z,4.72
2023-03-17T00:24:33.579Z,5.28
2023-03-17T00:27:01.551Z,4.38
2023-03-17T00:29:28.819Z,4.25
2023-03-17T00:31:57.835Z,4.70
2023-03-17T00:34:25.512Z,4.45
2023-03-17T00:36:53.420Z,4.97
2023-03-17T00:39:25.376Z,4.72
2023-03-17T00:41:54.947Z,4.45
2023-03-17T00:44:22.252Z,4.78
2023-03-17T00:46:49.588Z,5.28
2023-03-17T00:49:19.536Z,4.70
2023-03-17T00:51:47.135Z,4.78
2023-03-17T00:54:15.983Z,4.53
2023-03-17T00:56:44.245Z,5.15
2023-03-17T00:59:22.864Z,4.60
2023-03-17T01:01:50.243Z,4.75
2023-03-17T01:04:18.099Z,4.85
2023-03-17T01:06:47.033Z,4.93
2023-03-17T01:09:19.240Z,5.00
2023-03-17T01:11:48.556Z,4.95
2023-03-17T01:14:15.986Z,4.22
2023-03-17T01:16:44.680Z,5.28
2023-03-17T01:19:13.589Z,5.15
2023-03-17T01:21:42.468Z,4.90
2023-03-17T01:24:09.928Z,5.30
2023-03-17T01:26:37.747Z,4.97
2023-03-17T01:29:07.804Z,4.55
2023-03-17T01:31:35.401Z,4.53
2023-03-17T01:34:04.324Z,4.78
2023-03-17T01:36:31.660Z,4.57
2023-03-17T01:38:59.480Z,4.50
2023-03-17T01:41:27.163Z,4.57
2023-03-17T01:43:54.488Z,4.40
2023-03-17T01:46:29.995Z,4.40
2023-03-17T01:49:10.087Z,4.38
2023-03-17T01:51:49.173Z,3.55
2023-03-17T01:54:24.292Z,4.47
2023-03-17T01:56:53.833Z,4.60
2023-03-17T01:59:27.085Z,3.97
2023-03-17T02:02:02.265Z,4.40
2023-03-17T02:04:30.241Z,4.65
2023-03-17T02:06:59.105Z,4.18
2023-03-17T02:09:28.316Z,3.88
2023-03-17T02:11:56.466Z,4.47
2023-03-17T02:14:24.369Z,3.65
2023-03-17T02:16:51.806Z,4.20
2023-03-17T02:19:19.561Z,3.50
2023-03-17T02:22:00.403Z,4.18
2023-03-17T02:24:52.676Z,3.60
2023-03-17T02:27:33.802Z,4.25
2023-03-17T02:30:01.636Z,4.32
2023-03-17T02:32:29.502Z,3.90
2023-03-17T02:34:57.176Z,3.88
2023-03-17T02:37:24.512Z,4.07
2023-03-17T02:39:53.674Z,4.32
2023-03-17T02:42:21.412Z,3.95
2023-03-17T02:44:49.468Z,4.18
2023-03-17T02:47:19.357Z,4.00
2023-03-17T02:49:46.710Z,3.80
2023-03-17T02:52:14.101Z,3.92
2023-03-17T02:54:41.425Z,4.00
2023-03-17T02:57:08.840Z,3.58
2023-03-17T02:59:37.052Z,3.67
2023-03-17T03:02:04.374Z,3.70
2023-03-17T03:04:32.601Z,3.47
2023-03-17T03:07:00.382Z,4.00
2023-03-17T03:09:27.707Z,3.47
2023-03-17T03:11:55.017Z,3.67
2023-03-17T03:14:22.856Z,3.58
2023-03-17T03:16:50.248Z,3.35
2023-03-17T03:19:17.784Z,4.18
2023-03-17T03:21:46.069Z,4.10
2023-03-17T03:24:13.562Z,4.20
2023-03-17T03:26:41.493Z,4.30
2023-03-17T03:29:09.205Z,3.72
2023-03-17T03:31:36.476Z,4.03
2023-03-17T03:34:04.179Z,4.20
2023-03-17T03:36:32.281Z,4.60
2023-03-17T03:39:00.945Z,3.47
2023-03-17T03:41:28.300Z,4.07
2023-03-17T03:43:56.044Z,5.25
2023-03-17T03:46:23.489Z,11.05
2023-03-17T03:48:51.077Z,5.40
2023-03-17T03:51:18.416Z,4.30
2023-03-17T03:53:45.808Z,4.38
2023-03-17T03:56:13.065Z,4.20
2023-03-17T03:58:41.798Z,4.60
2023-03-17T04:01:09.870Z,4.30
2023-03-17T04:03:38.739Z,3.50
2023-03-17T04:06:06.700Z,3.95
2023-03-17T04:08:34.156Z,3.80
2023-03-17T04:11:01.446Z,3.88
2023-03-17T04:13:28.992Z,4.03
2023-03-17T04:15:56.451Z,4.10
2023-03-17T04:18:23.801Z,4.07
2023-03-17T04:20:51.271Z,4.28
2023-03-17T04:23:19.024Z,3.75
2023-03-17T04:25:46.834Z,4.45
2023-03-17T04:28:14.177Z,3.55
2023-03-17T04:30:41.526Z,4.07
2023-03-17T04:33:08.900Z,3.88
2023-03-17T04:35:36.268Z,3.60
2023-03-17T04:38:04.045Z,3.67
2023-03-17T04:40:32.283Z,4.07
2023-03-17T04:43:01.349Z,4.28
2023-03-17T04:45:29.917Z,4.57
2023-03-17T04:47:57.361Z,4.93
2023-03-17T04:50:25.070Z,4.60
2023-03-17T04:52:52.410Z,4.32
2023-03-17T04:55:20.008Z,4.72
2023-03-17T04:57:47.575Z,4.63
2023-03-17T05:00:15.618Z,4.10
2023-03-17T05:02:43.013Z,4.30
2023-03-17T05:05:10.555Z,4.13
2023-03-17T05:07:38.132Z,4.43
2023-03-17T05:10:06.505Z,4.20
2023-03-17T05:12:33.868Z,4.20
2023-03-17T05:15:01.172Z,4.18
2023-03-17T05:17:28.516Z,3.90
2023-03-17T05:19:55.873Z,4.38
2023-03-17T05:22:23.199Z,4.20
2023-03-17T05:24:50.600Z,4.75
2023-03-17T05:27:17.905Z,3.97
2023-03-17T05:29:45.233Z,3.83
2023-03-17T05:32:13.470Z,4.35
2023-03-17T05:34:40.819Z,4.10
2023-03-17T05:37:08.667Z,4.22
2023-03-17T05:39:36.019Z,4.00
2023-03-17T05:42:03.426Z,4.18
2023-03-17T05:44:31.013Z,4.32
2023-03-17T05:46:59.735Z,3.78
2023-03-17T05:49:28.329Z,3.90
2023-03-17T05:51:56.126Z,3.78
2023-03-17T05:54:24.063Z,4.70
2023-03-17T05:56:51.499Z,4.20
2023-03-17T05:59:18.813Z,4.57
2023-03-17T06:01:46.204Z,4.28
2023-03-17T06:04:13.546Z,4.40
2023-03-17T06:06:41.243Z,4.18
2023-03-17T06:09:08.568Z,4.28
2023-03-17T06:11:36.872Z,3.67
2023-03-17T06:14:04.171Z,4.38
2023-03-17T06:16:33.258Z,4.43
2023-03-17T06:19:01.159Z,4.68
2023-03-17T06:21:28.537Z,3.92
2023-03-17T06:23:55.897Z,3.88
2023-03-17T06:26:23.235Z,3.97
2023-03-17T06:28:50.919Z,3.88
2023-03-17T06:31:18.351Z,4.25
2023-03-17T06:33:45.876Z,3.97
2023-03-17T06:36:15.297Z,4.00
2023-03-17T06:38:43.810Z,3.92
2023-03-17T06:41:11.119Z,3.60
2023-03-17T06:43:39.720Z,3.85
2023-03-17T06:46:11.928Z,3.83
2023-03-17T06:48:43.625Z,4.30
2023-03-17T06:51:11.752Z,3.75
2023-03-17T06:53:39.049Z,3.67
2023-03-17T06:56:07.469Z,4.10
2023-03-17T06:58:35.634Z,3.58
2023-03-17T07:01:04.159Z,3.72
2023-03-17T07:03:32.617Z,3.33
2023-03-17T07:06:00.142Z,3.50
2023-03-17T07:08:30.625Z,3.47
2023-03-17T07:10:58.948Z,4.13
2023-03-17T07:13:27.242Z,4.30
2023-03-17T07:15:55.543Z,4.40
2023-03-17T07:18:23.702Z,3.70
2023-03-17T07:20:51.032Z,4.18
2023-03-17T07:23:22.662Z,4.15
2023-03-17T07:25:50.806Z,3.50
2023-03-17T07:28:19.181Z,4.20
2023-03-17T07:30:49.989Z,3.53
2023-03-17T07:33:21.191Z,3.60
2023-03-17T07:35:54.807Z,3.63
2023-03-17T07:38:35.836Z,3.30
2023-03-17T07:41:04.815Z,3.63
2023-03-17T07:43:32.189Z,3.45
2023-03-17T07:53:53.240Z,3.15
2023-03-17T07:56:34.929Z,3.78
2023-03-17T08:02:21.711Z,3.10
2023-03-17T08:04:51.011Z,3.65
2023-03-17T08:07:19.727Z,3.03
2023-03-17T08:09:47.835Z,3.70
2023-03-17T08:12:16.080Z,3.08
2023-03-17T08:14:44.077Z,3.10
2023-03-17T08:17:11.927Z,3.53
2023-03-17T08:19:39.522Z,3.30
2023-03-17T08:22:07.262Z,3.22
2023-03-17T08:24:37.206Z,3.63
2023-03-17T08:27:04.786Z,3.90
2023-03-17T08:29:32.643Z,4.28
2023-03-17T08:32:07.636Z,2.90
2023-03-17T08:34:47.221Z,3.42
2023-03-17T08:37:14.822Z,3.50
2023-03-17T08:39:42.384Z,3.90
2023-03-17T08:42:09.791Z,3.72
2023-03-17T08:44:37.226Z,3.20
2023-03-17T08:47:04.931Z,4.10
2023-03-17T08:49:34.782Z,3.90
2023-03-17T08:52:02.772Z,3.70
2023-03-17T08:54:30.296Z,3.72
2023-03-17T08:56:58.893Z,3.88
2023-03-17T08:59:27.003Z,3.63
2023-03-17T09:01:55.942Z,4.25
2023-03-17T09:04:23.614Z,3.20
2023-03-17T09:07:02.807Z,3.30
2023-03-17T09:09:35.447Z,3.08
2023-03-17T09:12:10.029Z,3.03
2023-03-17T09:14:43.115Z,3.22
2023-03-17T09:17:13.803Z,3.40
2023-03-17T09:19:41.551Z,3.10
2023-03-17T09:22:13.416Z,2.67
2023-03-17T09:24:41.000Z,2.92
2023-03-17T09:27:08.414Z,3.25
2023-03-17T09:29:36.156Z,3.13
2023-03-17T09:32:03.857Z,2.70
2023-03-17T09:34:31.480Z,3.08
2023-03-17T09:36:59.766Z,3.30
2023-03-17T09:39:27.555Z,3.17
2023-03-17T09:41:59.337Z,3.08
2023-03-17T09:44:51.865Z,3.25
2023-03-17T09:47:36.527Z,3.08
2023-03-17T09:50:10.761Z,2.55
2023-03-17T09:52:38.919Z,3.33
2023-03-17T09:55:12.416Z,3.42
2023-03-17T09:57:41.183Z,2.70
2023-03-17T10:00:19.492Z,2.90
2023-03-17T10:02:47.292Z,3.20
2023-03-17T10:05:22.300Z,3.25
2023-03-17T10:08:28.931Z,3.03
2023-03-17T10:11:18.768Z,3.30
2023-03-17T10:13:46.089Z,2.78
2023-03-17T10:16:19.404Z,3.17
2023-03-17T10:18:55.110Z,3.03
2023-03-17T10:21:27.653Z,3.35
2023-03-17T10:23:58.251Z,3.33
2023-03-17T10:26:50.310Z,3.60
2023-03-17T10:29:22.476Z,2.53
2023-03-17T10:31:58.578Z,3.20
2023-03-17T10:34:32.570Z,3.22
2023-03-17T10:37:07.941Z,3.40
2023-03-17T10:39:45.691Z,2.92
2023-03-17T10:42:33.493Z,3.30
2023-03-17T10:45:22.096Z,2.60
2023-03-17T10:47:50.885Z,3.15
2023-03-17T10:50:28.688Z,3.47
2023-03-17T10:53:08.729Z,3.67
2023-03-17T10:55:41.433Z,3.05
2023-03-17T10:58:17.034Z,3.13
2023-03-17T11:01:00.373Z,3.60
2023-03-17T11:03:44.133Z,3.20
2023-03-17T11:06:15.920Z,3.00
2023-03-17T11:08:55.205Z,3.45
2023-03-17T11:11:45.159Z,4.00
2023-03-17T11:14:16.189Z,3.20
2023-03-17T11:17:17.796Z,3.28
2023-03-17T11:19:54.022Z,3.22
2023-03-17T11:22:40.565Z,2.80
2023-03-17T11:25:16.139Z,2.85
2023-03-17T11:28:05.590Z,2.88
2023-03-17T11:30:47.683Z,2.50
2023-03-17T11:33:28.099Z,3.28
2023-03-17T11:36:12.439Z,3.33
2023-03-17T11:39:07.207Z,3.15
2023-03-17T11:42:06.911Z,3.00
2023-03-17T11:44:40.392Z,2.90
2023-03-17T11:47:44.092Z,3.33
2023-03-17T11:50:14.362Z,2.85
2023-03-17T11:53:02.825Z,2.90
2023-03-17T11:55:45.904Z,3.22
2023-03-17T11:58:22.826Z,2.92
2023-03-17T12:00:57.154Z,2.78
2023-03-17T12:03:41.885Z,2.88
2023-03-17T12:06:38.659Z,3.35
2023-03-17T12:09:38.094Z,2.97
2023-03-17T12:12:10.035Z,3.45
2023-03-17T12:14:52.468Z,3.15
2023-03-17T12:17:32.935Z,3.30
2023-03-17T12:20:57.280Z,3.67
2023-03-17T12:24:20.757Z,3.28
2023-03-17T12:27:03.576Z,3.22
2023-03-17T12:29:43.140Z,3.40
2023-03-17T12:32:13.659Z,3.35
2023-03-17T12:34:57.600Z,3.83
2023-03-17T12:37:28.214Z,3.25
2023-03-17T12:40:03.938Z,3.25
2023-03-17T12:42:57.134Z,3.10
2023-03-17T12:45:45.334Z,3.58
2023-03-17T12:48:25.648Z,3.25
2023-03-17T12:51:14.705Z,3.85
2023-03-17T12:53:44.828Z,3.90
2023-03-17T12:56:24.198Z,3.50
2023-03-17T12:58:53.528Z,3.03
2023-03-17T13:01:52.625Z,3.17
2023-03-17T13:04:38.138Z,3.42
2023-03-17T13:09:49.914Z,3.25
2023-03-17T13:15:28.086Z,3.60
2023-03-17T13:18:27.105Z,3.38
2023-03-17T13:20:57.558Z,3.30
2023-03-17T13:23:35.898Z,3.63
2023-03-17T13:26:04.384Z,3.70
2023-03-17T13:28:37.558Z,4.47
2023-03-17T13:31:13.708Z,4.25
2023-03-17T13:33:45.055Z,4.30
2023-03-17T13:36:12.398Z,4.22
2023-03-17T13:39:19.888Z,4.28
2023-03-17T13:42:05.588Z,4.22
2023-03-17T13:44:42.231Z,4.38
2023-03-17T13:47:33.527Z,4.68
2023-03-17T13:50:08.890Z,4.40
2023-03-17T13:52:45.946Z,4.35
2023-03-17T13:55:20.360Z,4.45
2023-03-17T13:58:11.835Z,4.93
2023-03-17T14:00:49.077Z,4.63
2023-03-17T14:03:37.366Z,4.60
2023-03-17T14:06:08.030Z,4.93
2023-03-17T14:09:10.978Z,4.65
2023-03-17T14:11:40.918Z,4.50
2023-03-17T14:14:40.620Z,5.47
2023-03-17T14:17:21.876Z,4.68
2023-03-17T14:20:24.432Z,5.15
2023-03-17T14:22:59.340Z,5.32
2023-03-17T14:25:37.058Z,5.00
2023-03-17T14:28:12.216Z,4.90
2023-03-17T14:30:39.739Z,5.45
2023-03-17T14:33:26.988Z,4.75
2023-03-17T14:35:58.502Z,5.18
2023-03-17T14:38:32.152Z,5.20
2023-03-17T14:41:06.553Z,5.13
2023-03-17T14:43:36.193Z,4.53
2023-03-17T14:46:06.631Z,5.18
2023-03-17T14:48:37.143Z,5.45
2023-03-17T14:51:17.838Z,4.88
2023-03-17T14:53:46.453Z,4.53
2023-03-17T15:26:46.549Z,5.32
2023-03-17T15:29:53.514Z,5.90
2023-03-17T15:44:51.700Z,5.90
2023-03-17T15:48:38.953Z,5.55
2023-03-17T15:52:11.616Z,5.43
2023-03-17T15:54:48.833Z,5.50
2023-03-17T15:57:54.829Z,5.18
2023-03-17T16:05:54.371Z,5.60
2023-03-17T16:08:24.299Z,6.72
2023-03-17T16:15:20.209Z,5.30
2023-03-17T16:17:52.477Z,5.95
2023-03-17T16:21:00.851Z,5.72
2023-03-17T16:23:31.984Z,6.75
2023-03-17T16:26:13.863Z,5.95
2023-03-17T16:28:44.581Z,5.78
2023-03-17T16:31:31.541Z,6.63
2023-03-17T16:34:00.055Z,5.85
2023-03-17T16:36:30.526Z,6.60
2023-03-17T16:38:57.980Z,7.72
2023-03-17T16:41:27.408Z,6.60
2023-03-17T16:44:01.153Z,6.18
2023-03-17T16:46:35.412Z,6.70
2023-03-17T16:49:04.972Z,6.82
2023-03-17T16:51:32.559Z,6.55
2023-03-17T16:53:59.969Z,7.43
2023-03-17T16:56:28.710Z,6.60
2023-03-17T16:58:56.796Z,6.57
2023-03-17T17:01:28.748Z,6.78
2023-03-17T17:03:56.786Z,6.20
2023-03-17T17:06:26.402Z,6.13
2023-03-17T17:08:53.897Z,6.97
2023-03-17T17:11:21.374Z,6.80
2023-03-17T17:13:50.028Z,7.10
2023-03-17T17:16:32.217Z,6.22
2023-03-17T17:19:03.041Z,7.68
2023-03-17T17:21:31.986Z,6.38
2023-03-17T17:23:59.366Z,6.22
2023-03-17T17:26:27.051Z,6.07
2023-03-17T17:28:54.458Z,5.90
2023-03-17T17:31:21.823Z,6.25
2023-03-17T17:45:23.101Z,8.43
2023-03-17T17:47:52.208Z,9.23
2023-03-17T17:50:25.943Z,8.30
2023-03-17T17:52:53.377Z,8.52
2023-03-17T17:55:21.296Z,7.35
2023-03-17T17:57:50.309Z,6.57
2023-03-17T18:00:29.549Z,6.43
2023-03-17T18:02:57.453Z,7.00
2023-03-17T18:05:24.898Z,5.60
2023-03-17T18:07:56.131Z,5.80
2023-03-17T18:10:26.148Z,6.90
2023-03-17T18:13:44.910Z,6.28
2023-03-17T18:16:49.441Z,6.05
2023-03-17T18:19:17.078Z,6.70
2023-03-17T18:22:16.526Z,7.15
2023-03-17T18:28:03.331Z,6.57
2023-03-17T18:30:48.525Z,6.68
2023-03-17T18:33:22.294Z,6.22
2023-03-17T18:35:52.433Z,6.60
2023-03-17T18:38:28.895Z,5.95
2023-03-17T18:40:59.762Z,6.68
2023-03-17T18:43:30.443Z,6.60
2023-03-17T18:45:58.039Z,6.00
2023-03-17T18:48:25.673Z,5.97
2023-03-17T18:51:41.241Z,6.15
2023-03-17T18:54:09.055Z,6.47
2023-03-17T18:56:41.507Z,6.78
2023-03-17T20:53:17.963Z,3.55
2023-03-17T20:55:45.848Z,3.58
2023-03-17T20:58:13.583Z,4.95
2023-03-17T22:44:28.773Z,4.95
2023-03-17T22:51:47.632Z,3.90
2023-03-17T23:02:50.554Z,4.97
2023-03-17T23:26:57.542Z,4.32
2023-03-17T23:29:15.400Z,4.18
2023-03-17T23:39:36.189Z,4.28
2023-03-17T23:43:12.297Z,3.70
2023-03-17T23:45:58.316Z,4.00
2023-03-17T23:54:13.025Z,4.15
2023-03-17T23:56:29.616Z,3.70
